Maxal Raise — V3VZ4 — position and weather

sailwx.info

Track history (hours):
 
Tides and Currents Weather Stations Pressure Air Temp Water Temp Dewpoint Dewpoint Depression Visibility Wind Speed Wind Dir Waves Ship Positions

Maxal Raise

Last reported at 2018-Feb-24 00:15 UTC. Time now 2018-Feb-25 23:52 UTC.
Position N 45°30' E 036°45'.

Length 89 m; draft 3.2 m.

Type: Cargo ship. MMSI: 312297000.

Date/timePositionNaut miles runAvg speedWind from/ knotsBaromVisibWave heightAir tempDewpointWater temp
2018-Feb-24 00:15N 45°30' E 036°45'2 8.1
2018-Feb-23 23:59N 45°29' E 036°43'4 8.0
2018-Feb-23 23:30N 45°25' E 036°41'4 7.8
2018-Feb-23 23:01N 45°21' E 036°40'3 6.5
2018-Feb-23 22:31N 45°20' E 036°36'5 5.9
2018-Feb-23 21:35N 45°18' E 036°29'0 5.8
2018-Feb-23 21:30N 45°17' E 036°29'3 5.0
2018-Feb-23 21:00N 45°15' E 036°29'1 1.9
2018-Feb-23 20:30N 45°14' E 036°30'0 0.0
2018-Feb-23 19:51N 45°14' E 036°30'0 0.1
2018-Feb-23 19:30N 45°14' E 036°30'0 0.0
2018-Feb-23 17:48N 45°14' E 036°30'0 0.0
2018-Feb-23 17:24N 45°14' E 036°30'0 0.0
2018-Feb-23 15:21N 45°14' E 036°30'0 0.1
2018-Feb-23 15:00N 45°14' E 036°30'0 0.0
2018-Feb-23 14:30N 45°14' E 036°30'0 0.0
2018-Feb-23 13:57N 45°14' E 036°30'0 0.0
2018-Feb-23 12:51N 45°14' E 036°30'0 0.1
2018-Feb-23 12:30N 45°14' E 036°30'0 0.0
2018-Feb-23 12:00N 45°14' E 036°30'0 0.0
2018-Feb-23 11:24N 45°14' E 036°30'0 0.0
2018-Feb-23 11:00N 45°14' E 036°30'0 0.0
2018-Feb-23 10:30N 45°14' E 036°30'0 0.0
2018-Feb-23 10:00N 45°14' E 036°30'0 0.0
2018-Feb-23 09:30N 45°14' E 036°30'0 0.0
2018-Feb-23 08:57N 45°14' E 036°30'0 0.0
2018-Feb-23 08:21N 45°14' E 036°30'0 0.0
2018-Feb-23 07:27N 45°14' E 036°30'0 0.0
2018-Feb-23 07:00N 45°14' E 036°30'0 0.0
2018-Feb-23 06:30N 45°14' E 036°30'0 0.0
2018-Feb-23 05:54N 45°14' E 036°30'0 0.0
2018-Feb-23 05:27N 45°14' E 036°30'0 0.0
2018-Feb-23 04:51N 45°14' E 036°30'0 0.1
2018-Feb-23 04:27N 45°14' E 036°30'  
2018-Feb-17 20:24N 37°40' E 023°43'4 8.9
2018-Feb-17 20:00N 37°43' E 023°40'4 8.9
2018-Feb-17 19:31N 37°47' E 023°38'4 8.6
2018-Feb-17 19:01N 37°49' E 023°33'4 8.7
2018-Feb-17 18:31N 37°50' E 023°27'4 8.8
2018-Feb-17 18:01N 37°51' E 023°22'4 8.6
2018-Feb-17 17:30N 37°52' E 023°17'4 8.6
2018-Feb-17 17:00N 37°53' E 023°11'4 8.6
2018-Feb-17 16:30N 37°54' E 023°06'2 4.5
2018-Feb-17 15:59N 37°55' E 023°03'0 0.0
2018-Feb-17 15:29N 37°55' E 023°03'0 0.0
2018-Feb-17 14:59N 37°55' E 023°03'0 0.0
2018-Feb-17 14:29N 37°55' E 023°03'0 0.0
2018-Feb-17 13:59N 37°55' E 023°03'0 0.0
2018-Feb-17 13:29N 37°55' E 023°03'0 0.0
2018-Feb-17 12:59N 37°55' E 023°03'0 0.0
2018-Feb-17 12:29N 37°55' E 023°03'0 0.0
2018-Feb-17 11:59N 37°55' E 023°03'0 0.0
2018-Feb-17 11:29N 37°55' E 023°03'0 0.0
2018-Feb-17 10:59N 37°55' E 023°03'0 0.0
2018-Feb-17 10:29N 37°55' E 023°03'0 0.0
2018-Feb-17 09:59N 37°55' E 023°03'0 0.0
2018-Feb-17 09:26N 37°55' E 023°03'0 0.0
2018-Feb-17 08:59N 37°55' E 023°03'0 0.0
2018-Feb-17 08:29N 37°55' E 023°03'0 0.0
2018-Feb-17 07:59N 37°55' E 023°03'0 0.0
2018-Feb-17 07:29N 37°55' E 023°03'0 0.0
2018-Feb-17 06:59N 37°55' E 023°03'0 0.0
2018-Feb-17 06:29N 37°55' E 023°03'0 0.0
2018-Feb-17 05:59N 37°55' E 023°03'0 0.0
2018-Feb-17 05:29N 37°55' E 023°03'0 0.0
2018-Feb-17 04:59N 37°55' E 023°03'0 0.0
2018-Feb-17 04:29N 37°55' E 023°03'0 0.0
2018-Feb-17 03:59N 37°55' E 023°03'0 0.0
2018-Feb-17 03:29N 37°55' E 023°03'0 0.0
2018-Feb-17 03:00N 37°55' E 023°03'0 0.0
2018-Feb-17 02:30N 37°55' E 023°03'0 0.0
2018-Feb-17 02:00N 37°55' E 023°03'0 0.0
2018-Feb-17 01:30N 37°55' E 023°03'0 0.0
2018-Feb-17 01:00N 37°55' E 023°03'0 0.0
2018-Feb-17 00:30N 37°55' E 023°03'0 0.0
2018-Feb-17 00:00N 37°55' E 023°03'0 0.0
2018-Feb-16 23:30N 37°55' E 023°03'0 0.0
2018-Feb-16 23:00N 37°55' E 023°03'0 0.0
2018-Feb-16 22:30N 37°55' E 023°03'0 0.0
2018-Feb-16 22:00N 37°55' E 023°03'0 0.0
2018-Feb-16 21:30N 37°55' E 023°03'0 0.0
2018-Feb-16 21:00N 37°55' E 023°03'0 0.0
2018-Feb-16 20:30N 37°55' E 023°03'0 0.0
2018-Feb-16 20:00N 37°55' E 023°03'0 0.0
2018-Feb-16 19:30N 37°55' E 023°03'0 0.0
2018-Feb-16 19:00N 37°55' E 023°03'0 0.0
2018-Feb-16 18:30N 37°55' E 023°03'0 0.0
2018-Feb-16 18:00N 37°55' E 023°03'0 0.0
2018-Feb-16 17:30N 37°55' E 023°03'0 0.0
2018-Feb-16 17:00N 37°55' E 023°03'0 0.0
2018-Feb-16 16:24N 37°55' E 023°03'0 0.0
2018-Feb-16 16:00N 37°55' E 023°03'0 0.0
2018-Feb-16 15:30N 37°55' E 023°03'0 0.0
2018-Feb-16 15:00N 37°55' E 023°03'0 0.0
2018-Feb-16 14:30N 37°55' E 023°03'0 0.0
2018-Feb-16 14:00N 37°55' E 023°03'0 0.0
2018-Feb-16 13:30N 37°55' E 023°03'0 0.0
2018-Feb-16 13:00N 37°55' E 023°03'0 0.0
2018-Feb-16 12:30N 37°55' E 023°03'0 0.0
2018-Feb-16 12:00N 37°55' E 023°03'0 0.0
2018-Feb-16 11:30N 37°55' E 023°03'0 0.0
2018-Feb-16 11:00N 37°55' E 023°03'0 0.0
2018-Feb-16 10:30N 37°55' E 023°03'0 0.0
2018-Feb-16 10:00N 37°55' E 023°03'0 0.0
2018-Feb-16 09:30N 37°55' E 023°03'0 0.0
2018-Feb-16 09:00N 37°55' E 023°03'0 0.0
2018-Feb-16 08:30N 37°55' E 023°03'0 0.0
2018-Feb-16 08:00N 37°55' E 023°03'0 0.0
2018-Feb-16 07:30N 37°55' E 023°03'0 0.0
2018-Feb-16 07:00N 37°55' E 023°03'0 0.1
2018-Feb-16 06:31N 37°55' E 023°03'1 1.7
2018-Feb-16 06:00N 37°54' E 023°04'4 7.5
2018-Feb-16 05:30N 37°53' E 023°08'4 7.5
2018-Feb-16 05:00N 37°53' E 023°13'4 7.6
2018-Feb-16 04:30N 37°52' E 023°18'4 7.5
2018-Feb-16 04:00N 37°51' E 023°23'4 7.4
2018-Feb-16 03:31N 37°50' E 023°27'4 7.5
2018-Feb-16 03:00N 37°49' E 023°32'4 7.4
2018-Feb-16 02:30N 37°48' E 023°36'4 7.5
2018-Feb-16 02:00N 37°47' E 023°41'3 7.0
2018-Feb-16 01:31N 37°45' E 023°43'4 7.3
2018-Feb-16 01:00N 37°42' E 023°46'  
Track history (hours):
 
Tides and Currents Weather Stations Pressure Air Temp Water Temp Dewpoint Dewpoint Depression Visibility Wind Speed Wind Dir Waves Ship Positions

Maxal Raise

Last reported at 2018-Feb-24 00:15 UTC. Time now 2018-Feb-25 23:52 UTC.
Position N 45°30' E 036°45'.

Length 89 m; draft 3.2 m.

Type: Cargo ship. MMSI: 312297000.

Date/timePositionNaut miles runAvg speedWind from/ knotsBaromVisibWave heightAir tempDewpointWater temp
2018-Feb-24 00:15N 45°30' E 036°45'2 8.1
2018-Feb-23 23:59N 45°29' E 036°43'4 8.0
2018-Feb-23 23:30N 45°25' E 036°41'4 7.8
2018-Feb-23 23:01N 45°21' E 036°40'3 6.5
2018-Feb-23 22:31N 45°20' E 036°36'5 5.9
2018-Feb-23 21:35N 45°18' E 036°29'0 5.8
2018-Feb-23 21:30N 45°17' E 036°29'3 5.0
2018-Feb-23 21:00N 45°15' E 036°29'1 1.9
2018-Feb-23 20:30N 45°14' E 036°30'0 0.0
2018-Feb-23 19:51N 45°14' E 036°30'0 0.1
2018-Feb-23 19:30N 45°14' E 036°30'0 0.0
2018-Feb-23 17:48N 45°14' E 036°30'0 0.0
2018-Feb-23 17:24N 45°14' E 036°30'0 0.0
2018-Feb-23 15:21N 45°14' E 036°30'0 0.1
2018-Feb-23 15:00N 45°14' E 036°30'0 0.0
2018-Feb-23 14:30N 45°14' E 036°30'0 0.0
2018-Feb-23 13:57N 45°14' E 036°30'0 0.0
2018-Feb-23 12:51N 45°14' E 036°30'0 0.1
2018-Feb-23 12:30N 45°14' E 036°30'0 0.0
2018-Feb-23 12:00N 45°14' E 036°30'0 0.0
2018-Feb-23 11:24N 45°14' E 036°30'0 0.0
2018-Feb-23 11:00N 45°14' E 036°30'0 0.0
2018-Feb-23 10:30N 45°14' E 036°30'0 0.0
2018-Feb-23 10:00N 45°14' E 036°30'0 0.0
2018-Feb-23 09:30N 45°14' E 036°30'0 0.0
2018-Feb-23 08:57N 45°14' E 036°30'0 0.0
2018-Feb-23 08:21N 45°14' E 036°30'0 0.0
2018-Feb-23 07:27N 45°14' E 036°30'0 0.0
2018-Feb-23 07:00N 45°14' E 036°30'0 0.0
2018-Feb-23 06:30N 45°14' E 036°30'0 0.0
2018-Feb-23 05:54N 45°14' E 036°30'0 0.0
2018-Feb-23 05:27N 45°14' E 036°30'0 0.0
2018-Feb-23 04:51N 45°14' E 036°30'0 0.1
2018-Feb-23 04:27N 45°14' E 036°30'  
2018-Feb-17 20:24N 37°40' E 023°43'4 8.9
2018-Feb-17 20:00N 37°43' E 023°40'4 8.9
2018-Feb-17 19:31N 37°47' E 023°38'4 8.6
2018-Feb-17 19:01N 37°49' E 023°33'4 8.7
2018-Feb-17 18:31N 37°50' E 023°27'4 8.8
2018-Feb-17 18:01N 37°51' E 023°22'4 8.6
2018-Feb-17 17:30N 37°52' E 023°17'4 8.6
2018-Feb-17 17:00N 37°53' E 023°11'4 8.6
2018-Feb-17 16:30N 37°54' E 023°06'2 4.5
2018-Feb-17 15:59N 37°55' E 023°03'0 0.0
2018-Feb-17 15:29N 37°55' E 023°03'0 0.0
2018-Feb-17 14:59N 37°55' E 023°03'0 0.0
2018-Feb-17 14:29N 37°55' E 023°03'0 0.0
2018-Feb-17 13:59N 37°55' E 023°03'0 0.0
2018-Feb-17 13:29N 37°55' E 023°03'0 0.0
2018-Feb-17 12:59N 37°55' E 023°03'0 0.0
2018-Feb-17 12:29N 37°55' E 023°03'0 0.0
2018-Feb-17 11:59N 37°55' E 023°03'0 0.0
2018-Feb-17 11:29N 37°55' E 023°03'0 0.0
2018-Feb-17 10:59N 37°55' E 023°03'0 0.0
2018-Feb-17 10:29N 37°55' E 023°03'0 0.0
2018-Feb-17 09:59N 37°55' E 023°03'0 0.0
2018-Feb-17 09:26N 37°55' E 023°03'0 0.0
2018-Feb-17 08:59N 37°55' E 023°03'0 0.0
2018-Feb-17 08:29N 37°55' E 023°03'0 0.0
2018-Feb-17 07:59N 37°55' E 023°03'0 0.0
2018-Feb-17 07:29N 37°55' E 023°03'0 0.0
2018-Feb-17 06:59N 37°55' E 023°03'0 0.0
2018-Feb-17 06:29N 37°55' E 023°03'0 0.0
2018-Feb-17 05:59N 37°55' E 023°03'0 0.0
2018-Feb-17 05:29N 37°55' E 023°03'0 0.0
2018-Feb-17 04:59N 37°55' E 023°03'0 0.0
2018-Feb-17 04:29N 37°55' E 023°03'0 0.0
2018-Feb-17 03:59N 37°55' E 023°03'0 0.0
2018-Feb-17 03:29N 37°55' E 023°03'0 0.0
2018-Feb-17 03:00N 37°55' E 023°03'0 0.0
2018-Feb-17 02:30N 37°55' E 023°03'0 0.0
2018-Feb-17 02:00N 37°55' E 023°03'0 0.0
2018-Feb-17 01:30N 37°55' E 023°03'0 0.0
2018-Feb-17 01:00N 37°55' E 023°03'0 0.0
2018-Feb-17 00:30N 37°55' E 023°03'0 0.0
2018-Feb-17 00:00N 37°55' E 023°03'0 0.0
2018-Feb-16 23:30N 37°55' E 023°03'0 0.0
2018-Feb-16 23:00N 37°55' E 023°03'0 0.0
2018-Feb-16 22:30N 37°55' E 023°03'0 0.0
2018-Feb-16 22:00N 37°55' E 023°03'0 0.0
2018-Feb-16 21:30N 37°55' E 023°03'0 0.0
2018-Feb-16 21:00N 37°55' E 023°03'0 0.0
2018-Feb-16 20:30N 37°55' E 023°03'0 0.0
2018-Feb-16 20:00N 37°55' E 023°03'0 0.0
2018-Feb-16 19:30N 37°55' E 023°03'0 0.0
2018-Feb-16 19:00N 37°55' E 023°03'0 0.0
2018-Feb-16 18:30N 37°55' E 023°03'0 0.0
2018-Feb-16 18:00N 37°55' E 023°03'0 0.0
2018-Feb-16 17:30N 37°55' E 023°03'0 0.0
2018-Feb-16 17:00N 37°55' E 023°03'0 0.0
2018-Feb-16 16:24N 37°55' E 023°03'0 0.0
2018-Feb-16 16:00N 37°55' E 023°03'0 0.0
2018-Feb-16 15:30N 37°55' E 023°03'0 0.0
2018-Feb-16 15:00N 37°55' E 023°03'0 0.0
2018-Feb-16 14:30N 37°55' E 023°03'0 0.0
2018-Feb-16 14:00N 37°55' E 023°03'0 0.0
2018-Feb-16 13:30N 37°55' E 023°03'0 0.0
2018-Feb-16 13:00N 37°55' E 023°03'0 0.0
2018-Feb-16 12:30N 37°55' E 023°03'0 0.0
2018-Feb-16 12:00N 37°55' E 023°03'0 0.0
2018-Feb-16 11:30N 37°55' E 023°03'0 0.0
2018-Feb-16 11:00N 37°55' E 023°03'0 0.0
2018-Feb-16 10:30N 37°55' E 023°03'0 0.0
2018-Feb-16 10:00N 37°55' E 023°03'0 0.0
2018-Feb-16 09:30N 37°55' E 023°03'0 0.0
2018-Feb-16 09:00N 37°55' E 023°03'0 0.0
2018-Feb-16 08:30N 37°55' E 023°03'0 0.0
2018-Feb-16 08:00N 37°55' E 023°03'0 0.0
2018-Feb-16 07:30N 37°55' E 023°03'0 0.0
2018-Feb-16 07:00N 37°55' E 023°03'0 0.1
2018-Feb-16 06:31N 37°55' E 023°03'1 1.7
2018-Feb-16 06:00N 37°54' E 023°04'4 7.5
2018-Feb-16 05:30N 37°53' E 023°08'4 7.5
2018-Feb-16 05:00N 37°53' E 023°13'4 7.6
2018-Feb-16 04:30N 37°52' E 023°18'4 7.5
2018-Feb-16 04:00N 37°51' E 023°23'4 7.4
2018-Feb-16 03:31N 37°50' E 023°27'4 7.5
2018-Feb-16 03:00N 37°49' E 023°32'4 7.4
2018-Feb-16 02:30N 37°48' E 023°36'4 7.5
2018-Feb-16 02:00N 37°47' E 023°41'3 7.0
2018-Feb-16 01:31N 37°45' E 023°43'4 7.3
2018-Feb-16 01:00N 37°42' E 023°46'  

Dump ship's entire track history